createdAt,value
2022-12-23T00:00:44.410Z,99048.59
2022-12-23T00:01:46.286Z,99049.19
2022-12-23T00:02:49.216Z,99051.94
2022-12-23T00:03:51.536Z,99055.09
2022-12-23T00:04:54.264Z,99050.66
2022-12-23T00:05:56.285Z,99050.66
2022-12-23T00:07:00.397Z,99057.56
2022-12-23T00:08:02.060Z,99057.56
2022-12-23T00:09:04.889Z,99053.78
2022-12-23T00:10:07.393Z,99056.28
2022-12-23T00:11:13.678Z,99062.63
2022-12-23T00:12:42.523Z,99065.09
2022-12-23T00:14:03.251Z,99063.47
2022-12-23T00:15:05.864Z,99056.88
2022-12-23T00:16:10.168Z,99057.72
2022-12-23T00:17:21.947Z,99053.34
2022-12-23T00:18:24.987Z,99055.25
2022-12-23T00:19:26.687Z,99056.66
2022-12-23T00:20:29.333Z,99052.72
2022-12-23T00:21:31.077Z,99049.97
2022-12-23T00:22:52.685Z,99051.66
2022-12-23T00:23:55.376Z,99046.59
2022-12-23T00:24:57.116Z,99052.94
2022-12-23T00:25:59.845Z,99043.50
2022-12-23T00:27:01.537Z,99037.19
2022-12-23T00:28:04.283Z,99046.47
2022-12-23T00:29:06.988Z,99044.34
2022-12-23T00:30:10.805Z,99034.91
2022-12-23T00:31:14.369Z,99038.25
2022-12-23T00:32:16.560Z,99036.34
2022-12-23T00:33:20.718Z,99041.59
2022-12-23T00:34:23.540Z,99038.84
2022-12-23T00:35:25.235Z,99036.13
2022-12-23T00:36:29.272Z,99042.81
2022-12-23T00:37:31.139Z,99036.50
2022-12-23T00:38:52.772Z,99032.47
2022-12-23T00:40:13.091Z,99036.06
2022-12-23T00:41:35.590Z,99032.47
2022-12-23T00:42:56.452Z,99031.41
2022-12-23T00:43:58.416Z,99033.69
2022-12-23T00:45:15.691Z,99030.47
2022-12-23T00:46:18.898Z,99031.09
2022-12-23T00:47:41.206Z,99032.78
2022-12-23T00:49:01.852Z,99033.84
2022-12-23T00:50:03.786Z,99032.16
2022-12-23T00:51:07.239Z,99037.06
2022-12-23T00:52:10.641Z,99037.88
2022-12-23T00:53:13.287Z,99035.13
2022-12-23T00:54:17.050Z,99032.38
2022-12-23T00:55:19.917Z,99028.84
2022-12-23T00:56:21.597Z,99035.75
2022-12-23T00:57:24.262Z,99036.38
2022-12-23T00:58:26.623Z,99038.84
2022-12-23T00:59:29.352Z,99044.75
2022-12-23T01:00:49.453Z,99037.09
2022-12-23T01:02:09.714Z,99043.22
2022-12-23T01:03:30.881Z,99043.81
2022-12-23T01:04:51.396Z,99050.13
2022-12-23T01:05:58.734Z,99045.94
2022-12-23T01:07:00.702Z,99051.28
2022-12-23T01:08:03.777Z,99054.25
2022-12-23T01:09:05.478Z,99053.41
2022-12-23T01:10:10.392Z,99049.81
2022-12-23T01:11:12.642Z,99050.66
2022-12-23T01:12:15.527Z,99056.97
2022-12-23T01:13:17.197Z,99058.44
2022-12-23T01:14:19.928Z,99057.81
2022-12-23T01:15:21.606Z,99052.13
2022-12-23T01:16:24.454Z,99058.19
2022-12-23T01:17:26.208Z,99052.34
2022-12-23T01:18:29.038Z,99054.25
2022-12-23T01:19:30.707Z,99055.69
2022-12-23T01:20:33.440Z,99055.69
2022-12-23T01:21:35.404Z,99061.19
2022-12-23T01:22:38.229Z,99057.97
2022-12-23T01:23:39.995Z,99055.22
2022-12-23T01:24:42.682Z,99052.28
2022-12-23T01:25:45.793Z,99052.28
2022-12-23T01:26:48.581Z,99049.28
2022-12-23T01:27:51.252Z,99059.88
2022-12-23T01:28:53.779Z,99056.06
2022-12-23T01:29:56.475Z,99059.66
2022-12-23T01:31:00.113Z,99063.09
2022-12-23T01:32:02.780Z,99070.00
2022-12-23T01:33:04.906Z,99064.13
2022-12-23T01:34:07.568Z,99067.09
2022-12-23T01:35:09.363Z,99069.25
2022-12-23T01:36:12.436Z,99071.16
2022-12-23T01:37:14.175Z,99075.16
2022-12-23T01:38:16.932Z,99072.69
2022-12-23T01:39:18.825Z,99075.84
2022-12-23T01:40:21.476Z,99074.41
2022-12-23T01:41:44.284Z,99075.69
2022-12-23T01:42:46.750Z,99089.75
2022-12-23T01:43:50.637Z,99086.66
2022-12-23T01:44:59.985Z,99085.38
2022-12-23T01:46:01.848Z,99084.28
2022-12-23T01:47:05.728Z,99098.81
2022-12-23T01:48:10.934Z,99099.06
2022-12-23T01:49:12.592Z,99108.94
2022-12-23T01:50:18.846Z,99100.13
2022-12-23T01:51:23.169Z,99098.22
2022-12-23T01:52:26.190Z,99097.78
2022-12-23T01:53:31.220Z,99101.13
2022-12-23T01:54:33.041Z,99109.34
2022-12-23T01:55:40.560Z,99106.00
2022-12-23T01:56:44.199Z,99104.94
2022-12-23T01:57:47.554Z,99098.38
2022-12-23T01:58:51.264Z,99102.56
2022-12-23T02:00:11.345Z,99098.97
2022-12-23T02:01:31.814Z,99097.34
2022-12-23T02:02:54.720Z,99109.09
2022-12-23T02:03:59.866Z,99110.19
2022-12-23T02:05:01.828Z,99111.47
2022-12-23T02:06:18.900Z,99109.34
2022-12-23T02:07:39.396Z,99108.56
2022-12-23T02:08:59.832Z,99106.88
2022-12-23T02:10:02.587Z,99117.03
2022-12-23T02:11:35.600Z,99115.34
2022-12-23T02:12:44.802Z,99123.41
2022-12-23T02:14:07.205Z,99124.94
2022-12-23T02:15:34.949Z,99123.47
2022-12-23T02:16:42.861Z,99128.94
2022-12-23T02:17:52.612Z,99130.41
2022-12-23T02:19:05.341Z,99123.03
2022-12-23T02:20:29.741Z,99134.78
2022-12-23T02:22:03.284Z,99141.97
2022-12-23T02:23:26.561Z,99146.69
2022-12-23T02:25:05.888Z,99152.59
2022-12-23T02:26:18.637Z,99157.63
2022-12-23T02:27:28.425Z,99154.66
2022-12-23T02:28:49.895Z,99156.78
2022-12-23T02:30:05.931Z,99160.59
2022-12-23T02:31:13.530Z,99160.59
2022-12-23T02:32:19.132Z,99158.69
2022-12-23T02:33:30.138Z,99164.38
2022-12-23T02:34:39.000Z,99158.91
2022-12-23T02:35:45.123Z,99160.59
2022-12-23T02:36:54.224Z,99156.63
2022-12-23T02:38:00.132Z,99163.53
2022-12-23T02:39:07.965Z,99170.69
2022-12-23T02:40:13.159Z,99168.41
2022-12-23T02:41:21.431Z,99169.25
2022-12-23T02:42:26.064Z,99170.09
2022-12-23T02:43:35.290Z,99162.69
2022-12-23T02:44:43.496Z,99168.81
2022-12-23T02:45:50.231Z,99169.66
2022-12-23T02:46:59.245Z,99171.31
2022-12-23T02:48:06.463Z,99168.59
2022-12-23T02:49:11.020Z,99176.81
2022-12-23T02:50:18.595Z,99180.59
2022-12-23T02:51:22.801Z,99178.31
2022-12-23T02:52:30.990Z,99174.75
2022-12-23T02:53:37.923Z,99169.47
2022-12-23T02:54:45.827Z,99175.16
2022-12-23T02:55:48.859Z,99176.22
2022-12-23T02:56:53.406Z,99179.41
2022-12-23T02:57:55.939Z,99180.25
2022-12-23T02:59:02.866Z,99180.47
2022-12-23T03:00:06.664Z,99185.56
2022-12-23T03:01:09.449Z,99186.19
2022-12-23T03:02:12.861Z,99187.25
2022-12-23T03:03:17.130Z,99187.47
2022-12-23T03:04:19.004Z,99188.50
2022-12-23T03:05:26.529Z,99192.09
2022-12-23T03:06:30.706Z,99199.47
2022-12-23T03:07:36.691Z,99192.56
2022-12-23T03:08:43.143Z,99193.16
2022-12-23T03:09:50.654Z,99192.09
2022-12-23T03:11:02.537Z,99197.19
2022-12-23T03:12:10.111Z,99201.16
2022-12-23T03:13:20.928Z,99203.13
2022-12-23T03:14:35.153Z,99207.94
2022-12-23T03:15:41.774Z,99199.91
2022-12-23T03:16:52.701Z,99203.28
2022-12-23T03:18:02.112Z,99196.72
2022-12-23T03:19:10.169Z,99198.88
2022-12-23T03:20:15.100Z,99196.34
2022-12-23T03:21:21.412Z,99206.44
2022-12-23T03:22:26.365Z,99204.56
2022-12-23T03:23:31.785Z,99201.59
2022-12-23T03:24:40.589Z,99199.72
2022-12-23T03:25:45.907Z,99199.53
2022-12-23T03:26:51.729Z,99206.06
2022-12-23T03:27:57.615Z,99202.69
2022-12-23T03:29:03.180Z,99202.94
2022-12-23T03:30:08.259Z,99202.94
2022-12-23T03:31:13.324Z,99202.94
2022-12-23T03:32:17.233Z,99206.94
2022-12-23T03:33:22.894Z,99207.56
2022-12-23T03:34:30.033Z,99201.47
2022-12-23T03:35:35.289Z,99200.63
2022-12-23T03:36:39.789Z,99204.19
2022-12-23T03:37:44.875Z,99202.31
2022-12-23T03:38:49.939Z,99201.63
2022-12-23T03:39:54.479Z,99207.75
2022-12-23T03:40:59.477Z,99205.00
2022-12-23T03:42:04.864Z,99205.84
2022-12-23T03:43:10.636Z,99210.03
2022-12-23T03:44:15.935Z,99211.50
2022-12-23T03:45:39.836Z,99211.06
2022-12-23T03:46:45.524Z,99215.47
2022-12-23T03:47:51.613Z,99214.63
2022-12-23T03:48:56.441Z,99216.53
2022-12-23T03:50:01.739Z,99215.91
2022-12-23T03:51:08.045Z,99224.34
2022-12-23T03:52:20.537Z,99234.47
2022-12-23T03:53:25.766Z,99244.56
2022-12-23T03:54:32.162Z,99247.75
2022-12-23T03:55:36.139Z,99256.78
2022-12-23T03:56:43.452Z,99246.91
2022-12-23T03:57:48.388Z,99246.75
2022-12-23T03:58:55.053Z,99252.81
2022-12-23T03:59:56.830Z,99248.41
2022-12-23T04:01:05.313Z,99246.28
2022-12-23T04:02:09.309Z,99241.88
2022-12-23T04:03:16.005Z,99241.66
2022-12-23T04:04:25.579Z,99248.41
2022-12-23T04:05:30.887Z,99248.41
2022-12-23T04:06:36.986Z,99255.81
2022-12-23T04:07:42.061Z,99251.59
2022-12-23T04:08:44.784Z,99250.13
2022-12-23T04:09:48.292Z,99258.13
2022-12-23T04:10:50.316Z,99258.56
2022-12-23T04:11:53.377Z,99258.78
2022-12-23T04:12:55.328Z,99260.25
2022-12-23T04:13:58.034Z,99268.22
2022-12-23T04:14:59.827Z,99271.59
2022-12-23T04:16:03.157Z,99269.91
2022-12-23T04:17:04.948Z,99273.50
2022-12-23T04:18:07.774Z,99278.13
2022-12-23T04:19:09.538Z,99282.16
2022-12-23T04:20:13.933Z,99280.25
2022-12-23T04:21:15.628Z,99274.53
2022-12-23T04:22:18.477Z,99272.03
2022-12-23T04:23:20.151Z,99262.97
2022-12-23T04:24:22.910Z,99262.13
2022-12-23T04:25:24.603Z,99264.66
2022-12-23T04:26:27.240Z,99277.53
2022-12-23T04:27:28.939Z,99277.53
2022-12-23T04:28:31.602Z,99276.69
2022-12-23T04:29:33.403Z,99260.47
2022-12-23T04:30:36.094Z,99253.09
2022-12-23T04:31:37.797Z,99265.09
2022-12-23T04:32:40.904Z,99280.47
2022-12-23T04:33:42.701Z,99279.63
2022-12-23T04:34:45.412Z,99270.16
2022-12-23T04:35:48.489Z,99271.44
2022-12-23T04:36:51.200Z,99263.66
2022-12-23T04:37:52.893Z,99265.78
2022-12-23T04:38:55.546Z,99268.50
2022-12-23T04:39:57.247Z,99268.75
2022-12-23T04:40:59.888Z,99264.31
2022-12-23T04:42:01.565Z,99257.41
2022-12-23T04:43:04.312Z,99265.38
2022-12-23T04:44:06.579Z,99267.50
2022-12-23T04:45:10.291Z,99277.38
2022-12-23T04:46:11.998Z,99279.72
2022-12-23T04:47:14.654Z,99278.03
2022-12-23T04:48:16.309Z,99276.38
2022-12-23T04:49:19.101Z,99279.13
2022-12-23T04:50:20.861Z,99275.16
2022-12-23T04:51:24.923Z,99279.34
2022-12-23T04:52:26.654Z,99281.47
2022-12-23T04:53:29.346Z,99275.53
2022-12-23T04:54:31.080Z,99265.44
2022-12-23T04:55:33.879Z,99258.31
2022-12-23T04:56:35.582Z,99258.31
2022-12-23T04:57:38.263Z,99257.66
2022-12-23T04:58:40.027Z,99258.50
2022-12-23T04:59:42.689Z,99268.63
2022-12-23T05:00:44.414Z,99269.25
2022-12-23T05:01:47.392Z,99270.50
2022-12-23T05:02:49.330Z,99277.69
2022-12-23T05:03:52.050Z,99293.47
2022-12-23T05:04:54.764Z,99292.00
2022-12-23T05:05:56.579Z,99290.50
2022-12-23T05:07:00.635Z,99283.16
2022-12-23T05:08:03.651Z,99288.63
2022-12-23T05:09:06.596Z,99289.25
2022-12-23T05:10:09.711Z,99284.00
2022-12-23T05:11:12.352Z,99286.94
2022-12-23T05:12:14.054Z,99288.00
2022-12-23T05:13:16.846Z,99289.06
2022-12-23T05:14:19.568Z,99288.22
2022-12-23T05:15:21.301Z,99282.94
2022-12-23T05:16:24.046Z,99283.78
2022-12-23T05:17:25.904Z,99284.03
2022-12-23T05:18:28.596Z,99287.81
2022-12-23T05:19:30.349Z,99280.03
2022-12-23T05:20:32.961Z,99274.56
2022-12-23T05:21:34.739Z,99272.06
2022-12-23T05:22:38.833Z,99268.69
2022-12-23T05:23:40.647Z,99270.16
2022-12-23T05:24:43.656Z,99272.06
2022-12-23T05:25:50.716Z,99281.09
2022-12-23T05:26:59.809Z,99279.63
2022-12-23T05:28:02.316Z,99279.22
2022-12-23T05:29:05.608Z,99289.94
2022-12-23T05:30:08.641Z,99285.72
2022-12-23T05:31:11.900Z,99278.38
2022-12-23T05:32:13.701Z,99288.69
2022-12-23T05:33:16.425Z,99286.19
2022-12-23T05:34:18.199Z,99289.50
2022-12-23T05:35:20.917Z,99289.50
2022-12-23T05:36:22.651Z,99289.75
2022-12-23T05:37:25.310Z,99289.50
2022-12-23T05:38:28.387Z,99284.91
2022-12-23T05:39:31.077Z,99292.88
2022-12-23T05:40:34.002Z,99290.16
2022-12-23T05:41:36.834Z,99292.03
2022-12-23T05:42:38.537Z,99285.28
2022-12-23T05:43:41.322Z,99286.97
2022-12-23T05:44:42.964Z,99285.94
2022-12-23T05:45:46.025Z,99286.78
2022-12-23T05:46:47.750Z,99290.13
2022-12-23T05:47:50.440Z,99293.69
2022-12-23T05:48:52.132Z,99286.13
2022-12-23T05:49:54.744Z,99288.41
2022-12-23T05:50:57.465Z,99289.06
2022-12-23T05:51:59.188Z,99293.69
2022-12-23T05:53:02.025Z,99296.41
2022-12-23T05:54:05.319Z,99297.28
2022-12-23T05:55:09.361Z,99288.84
2022-12-23T05:56:11.087Z,99287.78
2022-12-23T05:57:14.217Z,99288.63
2022-12-23T05:58:16.272Z,99284.63
2022-12-23T05:59:19.028Z,99285.69
2022-12-23T06:00:21.569Z,99289.84
2022-12-23T06:01:24.273Z,99284.63
2022-12-23T06:02:26.114Z,99288.63
2022-12-23T06:03:29.049Z,99288.22
2022-12-23T06:04:31.056Z,99290.50
2022-12-23T06:05:33.829Z,99293.44
2022-12-23T06:06:35.552Z,99296.59
2022-12-23T06:07:39.022Z,99296.59
2022-12-23T06:08:40.711Z,99299.78
2022-12-23T06:09:44.838Z,99292.41
2022-12-23T06:10:46.621Z,99311.09
2022-12-23T06:11:49.469Z,99302.72
2022-12-23T06:12:51.139Z,99302.72
2022-12-23T06:13:54.061Z,99307.75
2022-12-23T06:14:55.762Z,99309.22
2022-12-23T06:15:58.485Z,99314.06
2022-12-23T06:17:00.384Z,99305.44
2022-12-23T06:18:03.088Z,99297.84
2022-12-23T06:19:04.813Z,99304.78
2022-12-23T06:20:10.327Z,99305.41
2022-12-23T06:21:13.894Z,99310.88
2022-12-23T06:22:17.759Z,99313.41
2022-12-23T06:23:19.474Z,99307.09
2022-12-23T06:24:22.212Z,99295.09
2022-12-23T06:25:25.238Z,99306.03
2022-12-23T06:26:27.927Z,99300.34
2022-12-23T06:27:29.618Z,99304.53
2022-12-23T06:28:32.317Z,99302.84
2022-12-23T06:29:34.014Z,99314.44
2022-12-23T06:30:36.712Z,99299.47
2022-12-23T06:31:38.441Z,99310.19
2022-12-23T06:32:41.219Z,99310.38
2022-12-23T06:33:42.966Z,99312.69
2022-12-23T06:34:46.646Z,99313.09
2022-12-23T06:35:48.411Z,99317.28
2022-12-23T06:36:51.052Z,99317.94
2022-12-23T06:37:53.358Z,99317.47
2022-12-23T06:38:56.238Z,99320.63
2022-12-23T06:39:57.940Z,99326.50
2022-12-23T06:41:02.158Z,99324.38
2022-12-23T06:42:04.083Z,99332.19
2022-12-23T06:43:06.828Z,99327.31
2022-12-23T06:44:09.414Z,99334.25
2022-12-23T06:45:13.239Z,99329.38
2022-12-23T06:46:14.948Z,99331.69
2022-12-23T06:47:17.667Z,99319.66
2022-12-23T06:48:20.184Z,99313.97
2022-12-23T06:49:23.012Z,99318.16
2022-12-23T06:50:24.678Z,99317.09
2022-12-23T06:51:27.438Z,99317.75
2022-12-23T06:52:29.124Z,99325.28
2022-12-23T06:53:31.834Z,99323.16
2022-12-23T06:54:33.549Z,99321.03
2022-12-23T06:55:36.432Z,99315.34
2022-12-23T06:56:39.714Z,99323.13
2022-12-23T06:57:42.401Z,99324.59
2022-12-23T06:58:44.126Z,99332.38
2022-12-23T06:59:46.788Z,99332.16
2022-12-23T07:00:48.577Z,99334.06
2022-12-23T07:01:51.465Z,99336.78
2022-12-23T07:02:53.526Z,99330.69
2022-12-23T07:03:56.281Z,99329.22
2022-12-23T07:04:58.023Z,99335.56
2022-12-23T07:06:00.726Z,99331.13
2022-12-23T07:07:02.461Z,99335.78
2022-12-23T07:08:05.285Z,99333.25
2022-12-23T07:09:07.395Z,99334.94
2022-12-23T07:10:10.608Z,99329.44
2022-12-23T07:11:12.316Z,99328.81
2022-12-23T07:12:16.438Z,99322.28
2022-12-23T07:13:18.255Z,99323.97
2022-12-23T07:14:20.941Z,99321.84
2022-12-23T07:15:22.631Z,99319.94
2022-12-23T07:16:25.455Z,99315.53
2022-12-23T07:17:30.690Z,99318.03
2022-12-23T07:18:34.278Z,99307.31
2022-12-23T07:19:37.065Z,99312.16
2022-12-23T07:20:38.744Z,99315.13
2022-12-23T07:21:41.448Z,99309.63
2022-12-23T07:22:43.191Z,99305.84
2022-12-23T07:23:45.858Z,99304.41
2022-12-23T07:24:48.556Z,99299.59
2022-12-23T07:25:52.421Z,99297.91
2022-12-23T07:26:55.979Z,99303.16
2022-12-23T07:27:59.244Z,99307.81
2022-12-23T07:29:02.765Z,99303.38
2022-12-23T07:30:06.539Z,99314.16
2022-12-23T07:31:08.376Z,99307.44
2022-12-23T07:32:11.199Z,99309.13
2022-12-23T07:33:12.959Z,99304.25
2022-12-23T07:34:15.654Z,99307.84
2022-12-23T07:35:18.513Z,99310.19
2022-12-23T07:36:21.339Z,99312.91
2022-12-23T07:37:23.039Z,99327.22
2022-12-23T07:38:25.707Z,99323.63
2022-12-23T07:39:27.365Z,99319.84
2022-12-23T07:40:30.124Z,99327.47
2022-12-23T07:41:31.933Z,99336.94
2022-12-23T07:42:45.049Z,99338.41
2022-12-23T07:43:49.201Z,99347.47
2022-12-23T07:44:51.888Z,99347.66
2022-12-23T07:45:59.637Z,99348.25
2022-12-23T07:47:03.344Z,99350.56
2022-12-23T07:48:05.357Z,99354.97
2022-12-23T07:49:08.039Z,99352.25
2022-12-23T07:50:10.181Z,99343.81
2022-12-23T07:51:12.887Z,99349.91
2022-12-23T07:52:15.892Z,99354.31
2022-12-23T07:53:18.644Z,99357.69
2022-12-23T07:54:20.416Z,99356.63
2022-12-23T07:55:23.499Z,99357.06
2022-12-23T07:56:26.315Z,99359.38
2022-12-23T07:57:29.241Z,99355.13
2022-12-23T07:58:31.995Z,99353.44
2022-12-23T07:59:35.047Z,99368.84
2022-12-23T08:00:37.775Z,99377.91
2022-12-23T08:01:39.585Z,99367.53
2022-12-23T08:02:42.655Z,99365.63
2022-12-23T08:03:44.708Z,99361.63
2022-12-23T08:04:47.586Z,99365.81
2022-12-23T08:05:59.320Z,99360.13
2022-12-23T08:07:01.999Z,99359.91
2022-12-23T08:08:04.199Z,99360.50
2022-12-23T08:09:09.449Z,99368.13
2022-12-23T08:10:12.050Z,99360.31
2022-12-23T08:11:16.872Z,99354.81
2022-12-23T08:12:18.563Z,99350.41
2022-12-23T08:13:21.246Z,99352.69
2022-12-23T08:14:23.349Z,99340.66
2022-12-23T08:15:27.439Z,99349.09
2022-12-23T08:16:29.229Z,99350.78
2022-12-23T08:17:32.852Z,99339.59
2022-12-23T08:18:38.532Z,99340.25
2022-12-23T08:19:41.574Z,99339.16
2022-12-23T08:20:43.371Z,99344.81
2022-12-23T08:21:46.027Z,99331.09
2022-12-23T08:22:48.276Z,99337.44
2022-12-23T08:23:52.399Z,99338.66
2022-12-23T08:24:54.048Z,99338.91
2022-12-23T08:26:01.555Z,99342.44
2022-12-23T08:27:04.363Z,99343.13
2022-12-23T08:28:06.097Z,99342.06
2022-12-23T08:29:08.820Z,99335.91
2022-12-23T08:30:12.554Z,99335.91
2022-12-23T08:31:18.795Z,99341.22
2022-12-23T08:32:20.583Z,99334.44
2022-12-23T08:33:23.375Z,99337.16
2022-12-23T08:34:25.301Z,99339.91
2022-12-23T08:35:28.992Z,99346.88
2022-12-23T08:36:33.672Z,99334.00
2022-12-23T08:37:35.367Z,99342.22
2022-12-23T08:38:38.336Z,99335.91
2022-12-23T08:39:40.060Z,99334.00
2022-12-23T08:40:42.860Z,99338.81
2022-12-23T08:41:48.464Z,99332.88
2022-12-23T08:42:51.178Z,99330.75
2022-12-23T08:43:53.263Z,99332.44
2022-12-23T08:44:58.767Z,99328.41
2022-12-23T08:46:00.947Z,99331.53
2022-12-23T08:47:05.029Z,99337.63
2022-12-23T08:48:06.826Z,99334.88
2022-12-23T08:49:10.411Z,99337.16
2022-12-23T08:50:12.130Z,99334.44
2022-12-23T08:51:17.044Z,99342.81
2022-12-23T08:52:18.779Z,99341.75
2022-12-23T08:53:21.627Z,99346.19
2022-12-23T08:54:25.174Z,99347.03
2022-12-23T08:55:26.874Z,99351.91
2022-12-23T08:56:31.216Z,99354.84
2022-12-23T08:57:35.307Z,99357.84
2022-12-23T08:58:37.742Z,99363.53
2022-12-23T08:59:40.430Z,99364.00
2022-12-23T09:00:42.362Z,99365.66
2022-12-23T09:01:45.220Z,99366.75
2022-12-23T09:02:49.471Z,99369.25
2022-12-23T09:03:53.087Z,99361.84
2022-12-23T09:04:55.780Z,99368.19
2022-12-23T09:05:57.498Z,99364.38
2022-12-23T09:07:03.900Z,99369.03
2022-12-23T09:08:05.629Z,99368.56
2022-12-23T09:09:09.769Z,99365.59
2022-12-23T09:10:11.737Z,99366.44
2022-12-23T09:11:16.840Z,99370.25
2022-12-23T09:12:19.525Z,99360.13
2022-12-23T09:13:30.819Z,99363.53
2022-12-23T09:14:37.435Z,99360.81
2022-12-23T09:15:41.568Z,99357.59
2022-12-23T09:16:44.251Z,99362.66
2022-12-23T09:17:46.054Z,99370.50
2022-12-23T09:18:50.146Z,99368.13
2022-12-23T09:19:53.147Z,99371.47
2022-12-23T09:20:59.143Z,99367.28
2022-12-23T09:22:01.858Z,99379.50
2022-12-23T09:23:04.120Z,99378.44
2022-12-23T09:24:07.418Z,99379.88
2022-12-23T09:25:10.902Z,99381.78
2022-12-23T09:26:19.269Z,99388.72
2022-12-23T09:27:21.953Z,99382.41
2022-12-23T09:28:24.179Z,99381.56
2022-12-23T09:29:26.905Z,99367.84
2022-12-23T09:30:28.804Z,99366.78
2022-12-23T09:31:36.881Z,99372.06
2022-12-23T09:32:39.389Z,99360.84
2022-12-23T09:33:42.186Z,99366.31
2022-12-23T09:34:46.354Z,99365.03
2022-12-23T09:35:48.094Z,99377.47
2022-12-23T09:36:55.229Z,99371.75
2022-12-23T09:37:58.337Z,99365.81
2022-12-23T09:38:59.989Z,99368.13
2022-12-23T09:40:03.157Z,99360.31
2022-12-23T09:41:16.435Z,99363.22
2022-12-23T09:42:32.205Z,99368.66
2022-12-23T09:43:41.103Z,99358.75
2022-12-23T09:44:54.065Z,99360.22
2022-12-23T09:46:02.475Z,99360.22
2022-12-23T09:47:06.306Z,99352.19
2022-12-23T09:48:13.465Z,99347.75
2022-12-23T09:49:17.528Z,99360.44
2022-12-23T09:50:26.151Z,99356.38
2022-12-23T09:51:29.457Z,99356.78
2022-12-23T09:52:38.559Z,99354.41
2022-12-23T09:53:50.831Z,99361.75
2022-12-23T09:54:54.217Z,99360.22
2022-12-23T09:56:03.025Z,99355.94
2022-12-23T09:57:12.547Z,99352.72
2022-12-23T09:58:22.783Z,99355.03
2022-12-23T09:59:36.249Z,99353.50
2022-12-23T10:00:40.869Z,99345.63
2022-12-23T10:01:49.271Z,99338.59
2022-12-23T10:03:01.746Z,99347.88
2022-12-23T10:04:29.067Z,99346.34
2022-12-23T10:05:40.458Z,99346.94
2022-12-23T10:06:45.825Z,99351.13
2022-12-23T10:07:51.251Z,99359.16
2022-12-23T10:08:58.506Z,99355.78
2022-12-23T10:10:06.094Z,99362.59
2022-12-23T10:11:14.508Z,99357.09
2022-12-23T10:12:27.634Z,99356.72
2022-12-23T10:13:35.925Z,99348.91
2022-12-23T10:14:37.781Z,99350.81
2022-12-23T10:15:44.407Z,99343.66
2022-12-23T10:16:49.990Z,99343.03
2022-12-23T10:17:54.647Z,99339.22
2022-12-23T10:19:01.234Z,99334.78
2022-12-23T10:20:05.137Z,99334.78
2022-12-23T10:21:14.508Z,99336.69
2022-12-23T10:22:18.745Z,99341.34
2022-12-23T10:23:26.909Z,99346.25
2022-12-23T10:24:34.779Z,99348.38
2022-12-23T10:25:39.657Z,99342.25
2022-12-23T10:26:47.753Z,99334.03
2022-12-23T10:27:49.581Z,99334.03
2022-12-23T10:28:57.255Z,99335.13
2022-12-23T10:30:13.954Z,99326.47
2022-12-23T10:31:40.320Z,99327.16
2022-12-23T10:32:53.742Z,99326.09
2022-12-23T10:34:03.088Z,99320.03
2022-12-23T10:35:13.300Z,99325.50
2022-12-23T10:36:21.348Z,99319.41
2022-12-23T10:37:30.437Z,99313.53
2022-12-23T10:38:49.991Z,99302.78
2022-12-23T10:40:02.466Z,99300.50
2022-12-23T10:41:12.028Z,99309.19
2022-12-23T10:42:20.063Z,99307.28
2022-12-23T10:43:27.348Z,99301.41
2022-12-23T10:44:54.381Z,99306.28
2022-12-23T10:46:00.713Z,99301.25
2022-12-23T10:47:13.169Z,99295.16
2022-12-23T10:48:26.819Z,99293.03
2022-12-23T10:49:33.497Z,99285.84
2022-12-23T10:50:46.726Z,99291.81
2022-12-23T10:51:52.769Z,99303.84
2022-12-23T10:52:56.980Z,99306.81
2022-12-23T10:54:02.351Z,99303.69
2022-12-23T10:55:06.195Z,99303.09
2022-12-23T10:56:09.566Z,99291.50
2022-12-23T10:57:12.604Z,99287.06
2022-12-23T10:58:18.262Z,99284.09
2022-12-23T10:59:24.375Z,99283.03
2022-12-23T11:00:26.230Z,99284.69
2022-12-23T11:01:31.923Z,99283.03
2022-12-23T11:02:46.092Z,99276.72
2022-12-23T11:03:56.048Z,99272.66
2022-12-23T11:04:57.907Z,99271.81
2022-12-23T11:06:01.247Z,99268.22
2022-12-23T11:07:41.949Z,99265.50
2022-12-23T11:08:28.787Z,99254.50
2022-12-23T11:09:38.344Z,99248.81
2022-12-23T11:10:41.155Z,99253.44
2022-12-23T11:12:05.569Z,99250.50
2022-12-23T11:13:08.396Z,99239.50
2022-12-23T11:14:29.635Z,99244.78
2022-12-23T11:15:34.337Z,99236.91
2022-12-23T11:16:46.366Z,99244.09
2022-12-23T11:17:58.547Z,99233.69
2022-12-23T11:19:05.457Z,99237.06
2022-12-23T11:20:15.234Z,99229.41
2022-12-23T11:21:17.049Z,99231.72
2022-12-23T11:22:26.173Z,99223.22
2022-12-23T11:23:30.455Z,99222.78
2022-12-23T11:24:36.789Z,99223.16
2022-12-23T11:25:44.697Z,99210.91
2022-12-23T11:26:49.330Z,99209.56
2022-12-23T11:27:52.604Z,99208.50
2022-12-23T11:29:06.163Z,99213.53
2022-12-23T11:30:18.824Z,99208.66
2022-12-23T11:31:26.079Z,99207.34
2022-12-23T11:32:29.734Z,99198.25
2022-12-23T11:33:33.849Z,99195.28
2022-12-23T11:34:38.650Z,99195.06
2022-12-23T11:35:40.545Z,99195.06
2022-12-23T11:36:44.100Z,99193.16
2022-12-23T11:37:48.221Z,99199.47
2022-12-23T11:38:51.403Z,99190.16
2022-12-23T11:39:54.384Z,99183.81
2022-12-23T11:40:57.341Z,99184.06
2022-12-23T11:42:06.070Z,99188.25
2022-12-23T11:43:16.535Z,99185.72
2022-12-23T11:44:22.782Z,99184.06
2022-12-23T11:45:27.892Z,99183.81
2022-12-23T11:46:32.089Z,99177.50
2022-12-23T11:47:38.448Z,99172.84
2022-12-23T11:48:40.156Z,99179.16
2022-12-23T11:49:49.447Z,99176.06
2022-12-23T11:50:59.981Z,99170.09
2022-12-23T11:52:10.723Z,99173.47
2022-12-23T11:53:16.318Z,99169.66
2022-12-23T11:54:25.313Z,99167.75
2022-12-23T11:55:29.759Z,99160.94
2022-12-23T11:56:37.213Z,99152.47
2022-12-23T11:57:41.834Z,99152.22
2022-12-23T11:58:48.090Z,99147.56
2022-12-23T11:59:51.586Z,99146.13
2022-12-23T12:00:56.862Z,99127.75
2022-12-23T12:02:00.205Z,99123.94
2022-12-23T12:03:04.661Z,99123.69
2022-12-23T12:04:09.240Z,99125.38
2022-12-23T12:05:20.044Z,99126.00
2022-12-23T12:06:23.695Z,99122.16
2022-12-23T12:07:26.810Z,99130.16
2022-12-23T12:08:33.997Z,99121.09
2022-12-23T12:09:40.670Z,99132.91
2022-12-23T12:10:43.486Z,99127.41
2022-12-23T12:11:48.567Z,99120.88
2022-12-23T12:12:54.853Z,99120.88
2022-12-23T12:14:00.611Z,99120.03
2022-12-23T12:15:02.373Z,99123.63
2022-12-23T12:16:24.047Z,99124.91
2022-12-23T12:17:30.607Z,99118.59
2022-12-23T12:18:33.445Z,99118.59
2022-12-23T12:19:38.008Z,99108.41
2022-12-23T12:20:42.330Z,99109.03
2022-12-23T12:21:45.716Z,99098.41
2022-12-23T12:22:52.582Z,99100.91
2022-12-23T12:24:17.161Z,99100.56
2022-12-23T12:25:22.568Z,99090.41
2022-12-23T12:26:27.990Z,99094.22
2022-12-23T12:27:37.121Z,99098.06
2022-12-23T12:28:42.383Z,99090.03
2022-12-23T12:29:47.501Z,99090.88
2022-12-23T12:30:52.662Z,99094.69
2022-12-23T12:31:57.790Z,99088.63
2022-12-23T12:33:05.111Z,99088.38
2022-12-23T12:34:31.401Z,99072.13
2022-12-23T12:35:39.157Z,99065.56
2022-12-23T12:36:47.041Z,99063.91
2022-12-23T12:37:53.650Z,99063.06
2022-12-23T12:38:59.903Z,99062.56
2022-12-23T12:40:04.079Z,99057.06
2022-12-23T12:41:12.398Z,99054.31
2022-12-23T12:42:17.636Z,99058.75
2022-12-23T12:43:25.596Z,99047.75
2022-12-23T12:44:30.989Z,99053.88
2022-12-23T12:45:40.043Z,99057.47
2022-12-23T12:46:45.217Z,99062.34
2022-12-23T12:47:58.449Z,99052.19
2022-12-23T12:49:07.091Z,99054.94